Time;durP1;ratioP1;P1;durP2;ratioP2;P2;SDS_P1;SDS_P2;PMS_P1;PMS_P2;Temp;Humidity;BMP_temperature;BMP_pressure;BME280_temperature;BME280_humidity;BME280_pressure;Samples;Min_cycle;Max_cycle;Signal;HPM_P1;HPM_P2
2021/08/11 00:00:04;;;;;;;5.70;4.25;;;16.40;99.90;;;;;;5016535;28;20096;-62
2021/08/11 00:02:30;;;;;;;7.05;4.57;;;16.30;99.90;;;;;;5030806;28;20064;-60
2021/08/11 00:04:56;;;;;;;12.40;4.43;;;16.30;99.90;;;;;;5030457;28;20110;-62
2021/08/11 00:07:21;;;;;;;9.77;4.53;;;16.30;99.90;;;;;;5030282;28;20065;-62
2021/08/11 00:09:47;;;;;;;5.68;4.30;;;16.30;99.90;;;;;;5031651;28;20037;-63
2021/08/11 00:12:13;;;;;;;6.30;4.38;;;16.30;99.90;;;;;;5029203;28;20021;-62
2021/08/11 00:14:38;;;;;;;7.82;4.20;;;16.20;99.90;;;;;;5031483;28;20264;-62
2021/08/11 00:17:04;;;;;;;6.18;3.90;;;16.20;99.90;;;;;;5030344;28;20040;-61
2021/08/11 00:19:30;;;;;;;7.93;4.68;;;16.10;99.90;;;;;;5030974;28;20103;-63
2021/08/11 00:21:55;;;;;;;10.18;4.75;;;16.10;99.90;;;;;;5030643;28;20029;-62
2021/08/11 00:24:21;;;;;;;6.90;4.45;;;16.20;99.90;;;;;;5030861;28;20028;-62
2021/08/11 00:26:47;;;;;;;8.25;4.82;;;16.20;99.90;;;;;;5029317;28;20575;-62
2021/08/11 00:29:12;;;;;;;5.03;4.00;;;16.30;99.90;;;;;;5030941;28;20052;-61
2021/08/11 00:31:38;;;;;;;6.13;4.28;;;16.30;99.90;;;;;;5030188;28;20498;-61
2021/08/11 00:34:05;;;;;;;10.30;4.72;;;16.30;99.90;;;;;;5030813;28;20156;-62
2021/08/11 00:36:30;;;;;;;7.30;4.43;;;16.30;99.90;;;;;;5030233;28;20037;-63
2021/08/11 00:38:56;;;;;;;8.25;4.45;;;16.30;99.90;;;;;;5031164;28;20077;-62
2021/08/11 00:41:22;;;;;;;8.57;4.25;;;16.20;99.90;;;;;;5031152;28;20025;-63
2021/08/11 00:43:47;;;;;;;8.60;4.35;;;16.30;99.90;;;;;;5030011;28;20068;-62
2021/08/11 00:46:13;;;;;;;9.27;4.65;;;16.20;99.90;;;;;;5031125;28;20120;-61
2021/08/11 00:48:39;;;;;;;8.73;4.50;;;16.20;99.90;;;;;;5029695;28;20033;-61
2021/08/11 00:51:06;;;;;;;7.25;3.65;;;16.10;99.90;;;;;;5030967;28;20033;-62
2021/08/11 00:53:33;;;;;;;7.47;4.00;;;16.00;99.90;;;;;;5029841;28;20060;-60
2021/08/11 00:55:59;;;;;;;7.32;4.43;;;15.80;99.90;;;;;;5029549;28;20399;-62
2021/08/11 00:58:26;;;;;;;8.57;3.90;;;15.80;99.90;;;;;;5030591;28;20108;-63
2021/08/11 01:00:54;;;;;;;8.95;3.90;;;15.70;99.90;;;;;;5034881;28;20065;-60
2021/08/11 01:03:23;;;;;;;8.27;4.35;;;15.70;99.90;;;;;;5033772;28;20526;-60
2021/08/11 01:05:53;;;;;;;8.27;4.10;;;15.60;99.90;;;;;;5034308;28;20059;-61
2021/08/11 01:08:21;;;;;;;5.07;3.70;;;15.60;99.90;;;;;;5034119;28;20033;-61
2021/08/11 01:10:51;;;;;;;7.85;4.07;;;15.50;99.90;;;;;;5034486;28;20104;-60
2021/08/11 01:13:17;;;;;;;7.90;4.00;;;15.50;99.90;;;;;;5034030;28;20047;-61
2021/08/11 01:15:46;;;;;;;8.32;4.47;;;15.40;99.90;;;;;;5034206;28;20391;-60
2021/08/11 01:18:16;;;;;;;7.60;4.20;;;15.30;99.90;;;;;;5034027;28;20064;-61
2021/08/11 01:21:14;;;;;;;8.38;4.25;;;15.20;99.90;;;;;;5034259;28;20042;-61
2021/08/11 01:23:49;;;;;;;6.30;3.65;;;15.20;99.90;;;;;;5031934;28;20399;-60
2021/08/11 01:26:25;;;;;;;7.07;4.85;;;15.10;99.90;;;;;;5034337;28;20033;-62
2021/08/11 01:29:02;;;;;;;10.27;5.20;;;15.10;99.90;;;;;;5032509;28;20037;-60
2021/08/11 01:31:53;;;;;;;10.60;4.95;;;15.10;99.90;;;;;;5034114;28;20555;-62
2021/08/11 01:34:28;;;;;;;6.95;4.32;;;15.10;99.90;;;;;;5034385;28;20525;-60
2021/08/11 01:37:02;;;;;;;9.07;4.50;;;15.10;99.90;;;;;;5032939;28;20052;-60
2021/08/11 01:39:38;;;;;;;5.80;3.75;;;15.10;99.90;;;;;;5034146;28;20033;-60
2021/08/11 01:42:17;;;;;;;5.90;3.88;;;15.00;99.90;;;;;;5032833;28;20391;-60
2021/08/11 01:44:54;;;;;;;7.95;4.13;;;14.90;99.90;;;;;;5033923;28;20065;-61
2021/08/11 01:47:24;;;;;;;6.25;4.38;;;14.90;99.90;;;;;;5032787;28;20452;-61
2021/08/11 01:49:52;;;;;;;6.43;4.00;;;14.80;99.90;;;;;;5033859;28;20037;-60
2021/08/11 01:52:19;;;;;;;7.72;4.03;;;14.70;99.90;;;;;;5033024;28;20053;-61
2021/08/11 01:54:46;;;;;;;7.63;3.90;;;14.70;99.90;;;;;;5033705;28;20116;-61
2021/08/11 01:57:16;;;;;;;5.90;3.83;;;14.60;99.90;;;;;;5031590;28;20383;-61
2021/08/11 01:59:42;;;;;;;7.45;4.10;;;14.60;99.90;;;;;;5033469;28;20033;-61
2021/08/11 02:02:12;;;;;;;7.00;3.75;;;14.60;99.90;;;;;;5032655;28;20392;-60
2021/08/11 02:04:38;;;;;;;5.63;3.88;;;14.60;99.90;;;;;;5033708;28;20045;-63
2021/08/11 02:07:04;;;;;;;7.13;4.07;;;14.60;99.90;;;;;;5032585;28;20048;-61
2021/08/11 02:09:31;;;;;;;7.28;4.40;;;14.60;99.90;;;;;;5033441;28;20395;-61
2021/08/11 02:11:56;;;;;;;6.35;3.80;;;14.50;99.90;;;;;;5032804;28;20041;-62
2021/08/11 02:14:23;;;;;;;5.47;3.80;;;14.40;99.90;;;;;;5032192;28;20033;-61
2021/08/11 02:16:49;;;;;;;6.68;4.20;;;14.40;99.90;;;;;;5033699;28;20106;-62
2021/08/11 02:19:15;;;;;;;7.07;4.55;;;14.30;99.90;;;;;;5032477;28;20064;-63
2021/08/11 02:21:41;;;;;;;5.25;3.50;;;14.40;99.90;;;;;;5033253;28;20111;-60
2021/08/11 02:24:09;;;;;;;9.18;3.90;;;14.30;99.90;;;;;;5032231;28;20442;-62
2021/08/11 02:26:49;;;;;;;7.35;3.55;;;14.30;99.90;;;;;;5033239;28;20030;-61
2021/08/11 02:29:47;;;;;;;15.27;3.80;;;14.20;99.90;;;;;;5021695;28;20483;-61
2021/08/11 02:32:28;;;;;;;6.97;3.75;;;14.20;99.90;;;;;;5020008;28;20538;-62
2021/08/11 02:35:08;;;;;;;8.32;3.53;;;14.20;99.90;;;;;;5032971;28;20040;-61
2021/08/11 02:37:41;;;;;;;4.45;3.38;;;14.20;99.90;;;;;;5032187;28;20039;-62
2021/08/11 02:40:14;;;;;;;11.63;4.07;;;14.10;99.90;;;;;;5032696;28;20038;-61
2021/08/11 02:43:07;;;;;;;7.50;3.58;;;14.00;99.90;;;;;;5031808;28;20080;-61
2021/08/11 02:45:36;;;;;;;6.40;3.35;;;14.00;99.90;;;;;;5032701;28;20122;-60
2021/08/11 02:48:01;;;;;;;4.75;3.10;;;13.90;99.90;;;;;;5031914;28;20033;-62
2021/08/11 02:50:27;;;;;;;6.03;3.47;;;13.90;99.90;;;;;;5032641;28;20087;-62
2021/08/11 02:52:54;;;;;;;7.45;3.65;;;13.90;99.90;;;;;;5032058;28;20395;-61
2021/08/11 02:55:21;;;;;;;9.98;4.25;;;13.80;99.90;;;;;;5032517;28;20187;-63
2021/08/11 02:57:49;;;;;;;5.90;3.45;;;13.80;99.90;;;;;;5030798;28;20408;-62
2021/08/11 03:00:15;;;;;;;6.80;3.50;;;13.80;99.90;;;;;;5032750;28;20199;-62
2021/08/11 03:02:40;;;;;;;6.78;3.15;;;13.80;99.90;;;;;;5031652;28;20099;-62
2021/08/11 03:05:07;;;;;;;8.93;3.90;;;13.80;99.90;;;;;;5031344;28;20057;-62
2021/08/11 03:07:34;;;;;;;6.15;3.28;;;13.70;99.90;;;;;;5023088;28;20072;-62
2021/08/11 03:09:59;;;;;;;6.93;3.38;;;13.70;99.90;;;;;;5032308;28;20144;-63
2021/08/11 03:12:26;;;;;;;5.63;3.58;;;13.70;99.90;;;;;;5032126;28;20116;-61
2021/08/11 03:14:52;;;;;;;8.82;3.60;;;13.80;99.90;;;;;;5031644;28;20029;-62
2021/08/11 03:17:17;;;;;;;6.00;3.60;;;13.90;99.90;;;;;;5032167;28;20112;-61
2021/08/11 03:19:44;;;;;;;6.10;3.85;;;13.90;99.90;;;;;;5031751;28;20029;-61
2021/08/11 03:22:11;;;;;;;7.80;4.22;;;13.90;99.90;;;;;;5031274;28;20034;-62
2021/08/11 03:24:38;;;;;;;5.32;3.50;;;13.80;99.90;;;;;;5031509;28;20041;-64
2021/08/11 03:27:04;;;;;;;7.25;3.40;;;13.80;99.90;;;;;;5032350;28;20028;-61
2021/08/11 03:29:30;;;;;;;8.52;3.53;;;13.80;99.90;;;;;;5031157;28;20375;-62
2021/08/11 03:31:55;;;;;;;5.82;3.35;;;13.80;99.90;;;;;;5032305;28;20036;-62
2021/08/11 03:34:21;;;;;;;6.20;3.03;;;13.80;99.90;;;;;;5031010;28;20042;-62
2021/08/11 03:36:47;;;;;;;8.38;3.50;;;13.80;99.90;;;;;;5023477;28;20060;-61
2021/08/11 03:39:12;;;;;;;6.35;3.47;;;13.80;99.90;;;;;;5025708;28;20040;-62
2021/08/11 03:41:38;;;;;;;6.38;3.60;;;13.80;99.90;;;;;;5031890;28;20101;-61
2021/08/11 03:44:04;;;;;;;4.63;3.50;;;13.80;99.90;;;;;;5030592;28;20033;-62
2021/08/11 03:46:31;;;;;;;8.57;3.83;;;13.80;99.90;;;;;;5031559;28;20041;-62
2021/08/11 03:48:57;;;;;;;5.97;3.70;;;13.80;99.90;;;;;;5031338;28;20025;-60
2021/08/11 03:51:23;;;;;;;5.70;3.50;;;13.80;99.90;;;;;;5031532;28;20643;-61
2021/08/11 03:53:48;;;;;;;6.78;3.50;;;13.70;99.90;;;;;;5031113;28;20095;-61
2021/08/11 03:56:14;;;;;;;7.63;3.33;;;13.60;99.90;;;;;;5031433;28;20435;-60
2021/08/11 03:58:40;;;;;;;6.60;3.13;;;13.70;99.90;;;;;;5029537;28;20053;-61
2021/08/11 04:01:06;;;;;;;6.32;3.50;;;13.60;99.90;;;;;;5031863;28;20108;-61
2021/08/11 04:03:32;;;;;;;6.53;3.50;;;13.60;99.90;;;;;;5030538;28;20025;-61
2021/08/11 04:05:58;;;;;;;6.60;3.47;;;13.60;99.90;;;;;;5031494;28;20026;-61
2021/08/11 04:08:23;;;;;;;6.38;3.47;;;13.50;99.90;;;;;;5030000;28;20026;-61
2021/08/11 04:10:49;;;;;;;7.50;3.67;;;13.50;99.90;;;;;;5031382;28;20028;-60
2021/08/11 04:13:15;;;;;;;9.43;3.80;;;13.50;99.90;;;;;;5030229;28;20464;-61
2021/08/11 04:15:46;;;;;;;12.43;3.72;;;13.50;99.90;;;;;;5031058;28;20128;-60
2021/08/11 04:18:12;;;;;;;9.30;3.55;;;13.50;99.90;;;;;;5030679;28;20761;-61
2021/08/11 04:20:39;;;;;;;9.85;3.63;;;13.60;99.90;;;;;;5031155;28;20032;-61
2021/08/11 04:23:05;;;;;;;6.00;3.33;;;13.60;99.90;;;;;;5030433;28;20033;-60
2021/08/11 04:25:32;;;;;;;5.07;3.70;;;13.60;99.90;;;;;;5031203;28;20497;-61
2021/08/11 04:27:58;;;;;;;8.25;3.95;;;13.50;99.90;;;;;;5030361;28;20422;-60
2021/08/11 04:30:23;;;;;;;10.27;4.18;;;13.50;99.90;;;;;;5030966;28;20086;-60
2021/08/11 04:32:49;;;;;;;9.77;3.83;;;13.50;99.90;;;;;;5031292;28;20022;-62
2021/08/11 04:35:15;;;;;;;13.20;4.80;;;13.50;99.90;;;;;;5030164;28;20497;-61
2021/08/11 04:37:40;;;;;;;11.35;4.90;;;13.60;99.90;;;;;;5030772;28;20095;-61
2021/08/11 04:40:08;;;;;;;14.50;4.68;;;13.60;99.90;;;;;;5030391;28;20033;-61
2021/08/11 04:42:35;;;;;;;7.63;4.57;;;13.60;99.90;;;;;;5030727;28;20021;-61
2021/08/11 04:45:01;;;;;;;8.85;4.03;;;13.60;99.90;;;;;;5030067;28;20037;-60
2021/08/11 04:47:27;;;;;;;5.18;3.47;;;13.50;99.90;;;;;;5030911;28;20025;-61
2021/08/11 04:49:53;;;;;;;12.07;4.00;;;13.50;99.90;;;;;;5030380;28;20392;-62
2021/08/11 04:52:18;;;;;;;12.75;4.95;;;13.40;99.90;;;;;;5031049;28;20037;-64
2021/08/11 04:54:45;;;;;;;9.50;3.70;;;13.50;99.90;;;;;;5029873;28;20445;-61
2021/08/11 04:57:10;;;;;;;7.18;3.78;;;13.50;99.90;;;;;;5030298;28;20039;-61
2021/08/11 04:59:36;;;;;;;13.02;4.30;;;13.50;99.90;;;;;;5029849;28;20033;-60
2021/08/11 05:02:02;;;;;;;7.68;4.05;;;13.50;99.90;;;;;;5030789;28;20026;-61
2021/08/11 05:04:28;;;;;;;15.68;4.30;;;13.50;99.90;;;;;;5029950;28;20472;-61
2021/08/11 05:06:54;;;;;;;14.93;5.05;;;13.50;99.90;;;;;;5030894;28;20036;-61
2021/08/11 05:09:20;;;;;;;11.43;4.28;;;13.70;99.90;;;;;;5029872;28;20120;-61
2021/08/11 05:11:45;;;;;;;8.32;3.88;;;13.80;99.90;;;;;;5029455;28;20387;-60
2021/08/11 05:14:11;;;;;;;16.65;4.82;;;13.80;99.90;;;;;;5029682;28;20104;-62
2021/08/11 05:16:37;;;;;;;11.48;4.43;;;13.80;99.90;;;;;;5030711;28;20379;-61
2021/08/11 05:19:03;;;;;;;11.73;4.07;;;14.00;99.90;;;;;;5029574;28;20025;-62
2021/08/11 05:21:28;;;;;;;11.75;4.63;;;14.00;99.90;;;;;;5030770;28;20026;-60
2021/08/11 05:23:54;;;;;;;12.32;4.40;;;14.00;99.90;;;;;;5029680;28;20100;-60
2021/08/11 05:26:20;;;;;;;15.07;5.07;;;14.00;99.90;;;;;;5030422;28;20484;-61
2021/08/11 05:28:47;;;;;;;12.18;4.93;;;14.10;99.90;;;;;;5029477;28;20089;-61
2021/08/11 05:31:13;;;;;;;13.93;5.30;;;14.10;99.90;;;;;;5030626;28;20033;-61
2021/08/11 05:33:39;;;;;;;11.45;4.55;;;14.10;99.90;;;;;;5029879;28;20581;-60
2021/08/11 05:36:05;;;;;;;8.38;4.45;;;14.20;99.90;;;;;;5030130;28;20033;-60
2021/08/11 05:38:31;;;;;;;13.15;4.63;;;14.30;99.90;;;;;;5029904;28;20030;-62
2021/08/11 05:40:57;;;;;;;9.63;4.38;;;14.40;99.90;;;;;;5030425;28;20456;-62
2021/08/11 05:43:22;;;;;;;15.93;4.88;;;14.30;99.90;;;;;;5030496;28;20044;-61
2021/08/11 05:45:48;;;;;;;10.63;4.68;;;14.30;99.90;;;;;;5030620;28;20060;-62
2021/08/11 05:48:14;;;;;;;13.18;4.88;;;14.40;99.90;;;;;;5034125;28;20029;-62
2021/08/11 05:50:40;;;;;;;11.40;4.60;;;14.50;99.90;;;;;;5033204;28;20049;-61
2021/08/11 05:53:05;;;;;;;14.13;5.07;;;14.40;99.90;;;;;;5033852;28;20480;-61
2021/08/11 05:55:31;;;;;;;10.98;4.70;;;14.50;99.90;;;;;;5033161;28;20108;-62
2021/08/11 05:57:57;;;;;;;12.48;4.53;;;14.50;99.90;;;;;;5032781;28;20434;-61
2021/08/11 06:00:23;;;;;;;20.73;5.82;;;14.50;99.90;;;;;;5032840;28;20551;-61
2021/08/11 06:02:48;;;;;;;10.98;5.25;;;14.60;99.90;;;;;;5033488;28;20383;-62
2021/08/11 06:05:14;;;;;;;14.20;5.07;;;14.70;99.90;;;;;;5032921;28;20151;-62
2021/08/11 06:07:40;;;;;;;12.57;4.10;;;14.70;99.90;;;;;;5033534;28;20034;-61
2021/08/11 06:10:06;;;;;;;14.10;5.18;;;14.70;99.90;;;;;;5032691;28;20154;-60
2021/08/11 06:12:32;;;;;;;9.23;4.60;;;14.80;99.90;;;;;;5033281;28;20041;-61
2021/08/11 06:14:58;;;;;;;10.93;5.32;;;14.80;99.90;;;;;;5033024;28;20033;-61
2021/08/11 06:17:24;;;;;;;8.13;4.53;;;14.90;99.90;;;;;;5033403;28;20028;-62
2021/08/11 06:19:50;;;;;;;13.30;4.78;;;15.00;99.90;;;;;;5032727;28;20131;-61
2021/08/11 06:22:17;;;;;;;17.85;5.00;;;15.00;99.90;;;;;;5033335;28;20434;-60
2021/08/11 06:24:43;;;;;;;16.38;4.47;;;15.10;99.90;;;;;;5032379;28;20115;-60
2021/08/11 06:27:09;;;;;;;14.80;8.43;;;15.10;99.90;;;;;;5033139;28;20099;-60
2021/08/11 06:29:34;;;;;;;12.43;4.28;;;15.10;99.90;;;;;;5032366;28;20045;-61
2021/08/11 06:32:02;;;;;;;11.75;4.70;;;15.30;99.90;;;;;;5032991;28;20124;-60
2021/08/11 06:34:28;;;;;;;11.05;4.70;;;15.20;99.90;;;;;;5032618;28;20033;-61
2021/08/11 06:36:54;;;;;;;12.85;4.70;;;15.20;99.90;;;;;;5033186;28;20021;-61
2021/08/11 06:39:19;;;;;;;15.25;5.60;;;15.40;99.90;;;;;;5031940;28;20031;-61
2021/08/11 06:41:45;;;;;;;13.18;5.13;;;15.40;99.90;;;;;;5033208;28;20037;-62
2021/08/11 06:44:11;;;;;;;11.15;5.38;;;15.40;99.90;;;;;;5031818;28;20099;-62
2021/08/11 06:46:37;;;;;;;12.23;5.10;;;15.50;99.90;;;;;;5033102;28;20440;-61
2021/08/11 06:49:03;;;;;;;12.13;5.35;;;15.60;99.90;;;;;;5031766;28;20038;-60
2021/08/11 06:51:28;;;;;;;13.95;5.10;;;15.60;99.90;;;;;;5033207;28;20060;-61
2021/08/11 06:53:54;;;;;;;15.32;5.00;;;15.70;99.90;;;;;;5032468;28;20029;-61
2021/08/11 06:56:20;;;;;;;12.30;4.35;;;15.80;99.90;;;;;;5030424;28;20120;-61
2021/08/11 06:58:45;;;;;;;13.43;4.90;;;15.80;99.90;;;;;;5042210;28;20021;-61
2021/08/11 07:01:11;;;;;;;14.57;4.60;;;15.90;99.90;;;;;;5035391;28;20067;-62
2021/08/11 07:03:37;;;;;;;12.65;4.30;;;16.00;99.90;;;;;;5032366;28;20061;-61
2021/08/11 07:06:03;;;;;;;12.48;4.80;;;16.00;99.90;;;;;;5031673;28;20430;-60
2021/08/11 07:08:29;;;;;;;9.75;4.78;;;16.00;99.90;;;;;;5032485;28;20109;-62
2021/08/11 07:10:54;;;;;;;11.50;5.00;;;15.90;99.90;;;;;;5031732;28;20160;-62
2021/08/11 07:13:20;;;;;;;11.75;4.35;;;15.90;99.90;;;;;;5031698;28;20033;-60
2021/08/11 07:15:46;;;;;;;8.50;4.20;;;15.90;99.90;;;;;;5031428;28;20476;-62
2021/08/11 07:18:16;;;;;;;12.95;5.53;;;16.10;99.90;;;;;;5032411;28;20040;-61
2021/08/11 07:20:42;;;;;;;13.02;5.00;;;16.20;99.90;;;;;;5031052;28;20357;-61
2021/08/11 07:23:07;;;;;;;13.25;4.75;;;16.40;99.90;;;;;;5032192;28;20030;-61
2021/08/11 07:25:33;;;;;;;9.80;4.38;;;16.40;99.90;;;;;;5031109;28;21173;-59
2021/08/11 07:27:59;;;;;;;11.55;4.50;;;16.60;99.90;;;;;;5035406;28;20057;-60
2021/08/11 07:30:25;;;;;;;12.27;5.00;;;16.80;99.90;;;;;;5035002;28;20125;-60
2021/08/11 07:32:51;;;;;;;6.68;4.07;;;17.00;99.90;;;;;;5032165;28;20036;-62
2021/08/11 07:35:17;;;;;;;8.77;4.38;;;17.10;99.90;;;;;;5030979;28;20029;-61
2021/08/11 07:37:46;;;;;;;12.25;4.78;;;17.30;99.90;;;;;;5031639;28;20107;-60
2021/08/11 07:40:13;;;;;;;10.57;4.72;;;17.30;99.90;;;;;;5031132;28;20043;-60
2021/08/11 07:42:40;;;;;;;10.48;4.63;;;17.40;99.90;;;;;;5031458;28;20052;-59
2021/08/11 07:45:07;;;;;;;10.25;4.13;;;17.40;99.90;;;;;;5030499;28;20048;-59
2021/08/11 07:47:32;;;;;;;9.05;4.30;;;17.50;99.90;;;;;;5031787;28;20082;-60
2021/08/11 07:49:58;;;;;;;8.48;3.78;;;17.50;99.90;;;;;;5030747;28;20025;-61
2021/08/11 07:52:24;;;;;;;9.68;3.78;;;17.60;99.90;;;;;;5031456;28;20085;-61
2021/08/11 07:54:49;;;;;;;10.63;3.70;;;17.60;99.90;;;;;;5030702;28;20029;-60
2021/08/11 07:57:15;;;;;;;10.35;4.50;;;17.70;99.90;;;;;;5030693;28;20017;-61
2021/08/11 07:59:41;;;;;;;10.38;3.90;;;17.70;99.90;;;;;;5030336;28;20029;-60
2021/08/11 08:02:10;;;;;;;7.53;4.13;;;17.80;99.90;;;;;;5031116;28;20033;-61
2021/08/11 08:04:36;;;;;;;12.70;4.63;;;18.10;99.90;;;;;;5030597;28;20200;-62
2021/08/11 08:07:02;;;;;;;10.77;4.18;;;18.40;99.90;;;;;;5031063;28;20163;-62
2021/08/11 08:09:27;;;;;;;11.10;4.20;;;18.70;99.90;;;;;;5029913;28;20040;-60
2021/08/11 08:11:53;;;;;;;11.85;4.00;;;19.10;99.90;;;;;;5031277;28;20025;-61
2021/08/11 08:14:19;;;;;;;11.90;4.18;;;19.50;99.90;;;;;;5031077;28;20037;-61
2021/08/11 08:16:44;;;;;;;9.82;4.00;;;19.90;99.90;;;;;;5028686;28;20403;-60
2021/08/11 08:19:10;;;;;;;11.18;3.85;;;20.10;99.90;;;;;;5031300;28;20030;-61
2021/08/11 08:21:36;;;;;;;8.43;3.58;;;20.40;99.90;;;;;;5030540;28;20029;-61
2021/08/11 08:24:01;;;;;;;7.35;3.65;;;20.60;99.90;;;;;;5030892;28;20053;-62
2021/08/11 08:26:27;;;;;;;7.72;3.22;;;20.80;99.90;;;;;;5030352;28;20450;-61
2021/08/11 08:28:53;;;;;;;11.77;3.17;;;21.00;99.90;;;;;;5030835;28;20077;-61
2021/08/11 08:31:18;;;;;;;13.65;3.85;;;21.40;99.90;;;;;;5030515;28;20029;-59
2021/08/11 08:33:44;;;;;;;6.57;2.58;;;21.70;99.90;;;;;;5031008;28;20083;-61
2021/08/11 08:36:10;;;;;;;10.13;2.65;;;22.00;99.90;;;;;;5030280;28;20546;-61
2021/08/11 08:38:36;;;;;;;9.70;2.78;;;22.10;99.90;;;;;;5031056;28;20029;-62
2021/08/11 08:41:02;;;;;;;10.00;3.13;;;22.50;99.90;;;;;;5029973;28;20017;-61
2021/08/11 08:43:28;;;;;;;8.85;2.90;;;22.50;99.90;;;;;;5030765;28;20022;-61
2021/08/11 08:45:54;;;;;;;10.10;2.38;;;22.60;99.90;;;;;;5030161;28;20045;-61
2021/08/11 08:48:20;;;;;;;12.35;2.58;;;22.70;99.90;;;;;;5030790;28;20036;-61
2021/08/11 08:50:50;;;;;;;8.85;2.40;;;22.50;99.90;;;;;;5029886;28;20033;-60
2021/08/11 08:53:22;;;;;;;6.22;2.42;;;22.60;99.90;;;;;;5030621;28;20039;-61
2021/08/11 08:55:48;;;;;;;11.32;3.05;;;22.60;99.90;;;;;;5030314;28;20037;-63
2021/08/11 08:58:14;;;;;;;8.30;2.35;;;23.00;99.90;;;;;;5029843;28;20029;-60
2021/08/11 09:00:41;;;;;;;8.65;2.63;;;23.30;99.90;;;;;;5029888;28;20030;-61
2021/08/11 09:03:06;;;;;;;5.28;2.63;;;23.50;99.90;;;;;;5030745;28;20132;-60
2021/08/11 09:05:32;;;;;;;8.52;2.17;;;23.70;99.90;;;;;;5029893;28;20069;-62
2021/08/11 09:07:58;;;;;;;8.02;2.65;;;23.90;99.90;;;;;;5030603;28;20048;-61
2021/08/11 09:10:26;;;;;;;7.53;2.05;;;24.00;99.90;;;;;;5030331;28;20035;-62
2021/08/11 09:13:06;;;;;;;4.55;2.40;;;23.90;99.90;;;;;;5030540;28;20037;-62
2021/08/11 09:15:33;;;;;;;4.97;2.28;;;24.10;99.90;;;;;;5029717;28;20026;-61
2021/08/11 09:18:13;;;;;;;6.82;2.70;;;24.20;99.90;;;;;;5030795;28;20542;-61
2021/08/11 09:20:40;;;;;;;8.40;2.80;;;24.20;99.90;;;;;;5032181;28;20356;-62
2021/08/11 09:23:07;;;;;;;9.15;3.28;;;24.20;99.90;;;;;;5034613;28;20033;-61
2021/08/11 09:25:33;;;;;;;6.68;2.35;;;24.30;99.90;;;;;;5033370;28;20033;-61
2021/08/11 09:27:59;;;;;;;5.75;2.50;;;24.30;99.90;;;;;;5034257;28;20041;-62
2021/08/11 09:30:26;;;;;;;8.40;2.90;;;24.50;99.90;;;;;;5031722;28;20487;-62
2021/08/11 09:33:03;;;;;;;15.20;2.85;;;24.40;99.90;;;;;;5034260;28;20451;-63
2021/08/11 09:35:30;;;;;;;8.27;2.35;;;24.30;99.90;;;;;;5033376;28;20041;-62
2021/08/11 09:37:59;;;;;;;8.25;2.20;;;24.50;99.90;;;;;;5034158;28;20025;-62
2021/08/11 09:40:34;;;;;;;4.35;2.35;;;24.50;99.90;;;;;;5033462;28;20395;-60
2021/08/11 09:43:08;;;;;;;6.72;2.58;;;24.20;99.90;;;;;;5033912;28;20025;-61
2021/08/11 09:45:53;;;;;;;4.13;2.40;;;24.30;99.90;;;;;;5033188;28;20037;-62
2021/08/11 09:48:24;;;;;;;5.10;2.70;;;24.20;99.90;;;;;;5034083;28;20056;-61
2021/08/11 09:50:55;;;;;;;6.57;2.50;;;24.40;99.90;;;;;;5032998;28;20021;-60
2021/08/11 09:53:25;;;;;;;7.57;3.00;;;24.60;99.90;;;;;;5033852;28;20475;-61
2021/08/11 09:56:07;;;;;;;5.97;2.50;;;24.40;99.90;;;;;;5032801;28;20025;-61
2021/08/11 09:58:36;;;;;;;6.80;2.80;;;24.40;99.90;;;;;;5022044;28;20095;-62
2021/08/11 10:01:02;;;;;;;9.48;2.80;;;24.70;99.90;;;;;;5032107;28;20033;-62
2021/08/11 10:03:28;;;;;;;4.88;2.22;;;24.60;99.90;;;;;;5032633;28;20106;-62
2021/08/11 10:05:54;;;;;;;4.07;2.08;;;24.60;99.90;;;;;;5032879;28;20045;-62
2021/08/11 10:08:30;;;;;;;7.55;2.17;;;24.40;99.90;;;;;;5033689;28;20026;-61
2021/08/11 10:10:56;;;;;;;10.10;2.05;;;24.50;99.90;;;;;;5033063;28;20117;-62
2021/08/11 10:13:23;;;;;;;5.40;2.13;;;24.50;99.90;;;;;;5032828;28;20112;-63
2021/08/11 10:15:49;;;;;;;4.05;1.90;;;24.50;99.90;;;;;;5032529;28;20460;-61
2021/08/11 10:18:23;;;;;;;8.70;3.17;;;24.60;99.90;;;;;;5033538;28;20029;-62
2021/08/11 10:20:52;;;;;;;6.80;2.20;;;24.40;99.90;;;;;;5032487;28;20025;-60
2021/08/11 10:23:19;;;;;;;3.83;2.08;;;24.50;99.90;;;;;;5033429;28;20049;-61
2021/08/11 10:25:47;;;;;;;4.43;2.40;;;24.50;99.90;;;;;;5032410;28;20029;-61
2021/08/11 10:28:16;;;;;;;7.30;2.35;;;24.50;99.90;;;;;;5032767;28;20057;-61
2021/08/11 10:30:42;;;;;;;6.05;2.38;;;24.30;99.90;;;;;;5030957;28;20033;-62
2021/08/11 10:33:09;;;;;;;3.92;2.20;;;24.30;99.90;;;;;;5032590;28;20337;-62
2021/08/11 10:35:35;;;;;;;7.55;2.55;;;24.30;99.90;;;;;;5031851;28;20091;-61
2021/08/11 10:38:03;;;;;;;6.60;2.15;;;24.40;99.90;;;;;;5033075;28;20017;-61
2021/08/11 10:40:29;;;;;;;4.32;2.03;;;24.40;99.90;;;;;;5032213;28;20079;-61
2021/08/11 10:42:57;;;;;;;5.15;2.30;;;24.50;99.90;;;;;;5032799;28;20029;-60
2021/08/11 10:45:24;;;;;;;6.90;2.30;;;24.50;99.90;;;;;;5032553;28;20471;-61
2021/08/11 10:47:50;;;;;;;6.38;2.83;;;24.20;99.90;;;;;;5032242;28;20033;-61
2021/08/11 10:50:17;;;;;;;6.43;2.80;;;24.10;99.90;;;;;;5032882;28;20037;-61
2021/08/11 10:52:43;;;;;;;7.40;2.20;;;23.90;99.90;;;;;;5030533;28;20379;-61
2021/08/11 10:55:09;;;;;;;5.93;1.80;;;24.10;99.90;;;;;;5032752;28;20052;-60
2021/08/11 10:57:35;;;;;;;6.32;2.17;;;24.20;99.90;;;;;;5031610;28;20037;-62
2021/08/11 11:00:10;;;;;;;5.00;2.30;;;24.40;99.90;;;;;;5032351;28;20022;-60
2021/08/11 11:02:39;;;;;;;3.47;2.10;;;24.30;99.90;;;;;;5031839;28;20373;-61
2021/08/11 11:05:28;;;;;;;5.60;2.10;;;24.40;99.90;;;;;;5018536;28;20029;-61
2021/08/11 11:08:09;;;;;;;15.25;2.67;;;24.50;99.90;;;;;;5027119;28;20051;-61
2021/08/11 11:10:36;;;;;;;3.40;2.30;;;24.70;99.90;;;;;;5032373;28;20395;-61
2021/08/11 11:13:33;;;;;;;6.35;2.42;;;24.80;99.90;;;;;;5031999;28;20575;-61
2021/08/11 11:16:03;;;;;;;3.72;2.30;;;24.70;99.90;;;;;;5031377;28;20270;-62
2021/08/11 11:18:29;;;;;;;9.80;2.40;;;24.60;99.90;;;;;;5032178;28;20040;-61
2021/08/11 11:20:58;;;;;;;3.83;2.35;;;24.70;99.90;;;;;;5031513;28;20025;-63
2021/08/11 11:23:34;;;;;;;7.78;2.40;;;24.80;99.90;;;;;;5031961;28;20028;-63
2021/08/11 11:26:10;;;;;;;4.43;2.60;;;24.80;99.90;;;;;;5031069;28;20176;-61
2021/08/11 11:28:58;;;;;;;4.78;2.33;;;24.90;99.90;;;;;;5024182;28;20084;-62
2021/08/11 11:31:34;;;;;;;6.70;3.00;;;25.00;99.90;;;;;;5031196;28;20065;-61
2021/08/11 11:34:18;;;;;;;3.60;2.38;;;25.10;99.90;;;;;;5030405;28;20040;-61
2021/08/11 11:36:45;;;;;;;6.07;2.20;;;25.10;99.90;;;;;;5031094;28;20064;-61
2021/08/11 11:39:14;;;;;;;6.13;2.75;;;25.00;99.90;;;;;;5031778;28;20025;-62
2021/08/11 11:42:09;;;;;;;14.73;3.33;;;25.00;99.90;;;;;;5029845;28;20041;-61
2021/08/11 11:44:49;;;;;;;6.17;3.07;;;25.10;99.90;;;;;;5030115;28;20069;-62
2021/08/11 11:47:46;;;;;;;5.45;2.95;;;25.30;99.90;;;;;;5031288;28;20284;-62
2021/08/11 11:50:21;;;;;;;4.93;2.90;;;25.10;99.90;;;;;;5022401;28;20030;-62
2021/08/11 11:52:58;;;;;;;6.03;2.40;;;25.40;99.90;;;;;;5027712;28;20074;-61
2021/08/11 11:55:41;;;;;;;5.47;2.60;;;25.30;99.90;;;;;;5031528;28;20029;-63
2021/08/11 11:58:09;;;;;;;5.53;2.40;;;25.30;99.90;;;;;;5030052;28;20029;-62
2021/08/11 12:00:36;;;;;;;8.75;4.50;;;25.40;99.90;;;;;;5031319;28;20036;-61
2021/08/11 12:03:03;;;;;;;5.40;2.50;;;25.40;99.90;;;;;;5030527;28;20052;-62
2021/08/11 12:05:42;;;;;;;8.45;2.58;;;25.40;99.90;;;;;;5030876;28;20451;-61
2021/08/11 12:08:17;;;;;;;5.43;2.55;;;25.40;99.90;;;;;;5030425;28;20029;-61
2021/08/11 12:10:44;;;;;;;7.65;4.25;;;25.40;99.90;;;;;;5031241;28;20096;-62
2021/08/11 12:13:10;;;;;;;4.43;2.47;;;25.40;99.90;;;;;;5030538;28;20446;-61
2021/08/11 12:15:38;;;;;;;5.55;2.58;;;25.30;99.90;;;;;;5031018;28;20064;-61
2021/08/11 12:18:22;;;;;;;7.38;2.70;;;25.30;99.90;;;;;;5030530;28;20026;-61
2021/08/11 12:20:50;;;;;;;4.32;2.40;;;25.30;99.90;;;;;;5031081;28;20079;-61
2021/08/11 12:23:16;;;;;;;6.32;2.60;;;25.20;99.90;;;;;;5030249;28;20036;-60
2021/08/11 12:25:42;;;;;;;4.32;2.47;;;25.20;99.90;;;;;;5030792;28;20038;-61
2021/08/11 12:28:16;;;;;;;5.60;2.38;;;25.50;99.90;;;;;;5030157;28;20136;-59
2021/08/11 12:31:12;;;;;;;5.63;2.88;;;25.70;99.90;;;;;;5030408;28;20022;-60
2021/08/11 12:33:40;;;;;;;6.50;2.97;;;25.60;99.90;;;;;;5025914;28;20077;-61
2021/08/11 12:36:18;;;;;;;5.82;2.90;;;25.40;99.90;;;;;;5030305;28;20013;-61
2021/08/11 12:39:00;;;;;;;4.18;2.50;;;25.60;99.90;;;;;;5030951;28;20029;-63
2021/08/11 12:41:27;;;;;;;8.38;2.92;;;25.70;99.90;;;;;;5029721;28;20109;-61
2021/08/11 12:43:56;;;;;;;6.97;2.35;;;25.40;99.90;;;;;;5030595;28;20036;-62
2021/08/11 12:46:40;;;;;;;10.27;2.70;;;25.30;99.90;;;;;;5030076;28;20032;-61
2021/08/11 12:49:13;;;;;;;6.00;2.95;;;25.40;99.90;;;;;;5009993;28;20041;-61